sensor_id;sensor_type;location;lat;lon;timestamp;pressure;altitude;pressure_sealevel;temperature;humidity
46111;BME280;31849;55.992;37.252;2023-04-16T00:00:06;100575.88;;;3.09;28.94
46111;BME280;31849;55.992;37.252;2023-04-16T00:05:09;100589.31;;;3.03;28.64
46111;BME280;31849;55.992;37.252;2023-04-16T00:10:14;100588.94;;;2.95;29.39
46111;BME280;31849;55.992;37.252;2023-04-16T00:15:20;100593.81;;;2.89;29.71
46111;BME280;31849;55.992;37.252;2023-04-16T00:20:23;100586.78;;;2.67;29.60
46111;BME280;31849;55.992;37.252;2023-04-16T00:25:28;100574.44;;;2.42;29.55
46111;BME280;31849;55.992;37.252;2023-04-16T00:30:32;100595.25;;;2.46;29.73
46111;BME280;31849;55.992;37.252;2023-04-16T00:35:36;100603.28;;;2.36;30.81
46111;BME280;31849;55.992;37.252;2023-04-16T00:40:41;100596.31;;;2.34;31.10
46111;BME280;31849;55.992;37.252;2023-04-16T00:45:45;100599.41;;;2.44;30.54
46111;BME280;31849;55.992;37.252;2023-04-16T00:50:49;100598.25;;;2.56;30.05
46111;BME280;31849;55.992;37.252;2023-04-16T00:55:54;100602.94;;;2.64;29.97
46111;BME280;31849;55.992;37.252;2023-04-16T01:00:59;100597.81;;;2.64;29.60
46111;BME280;31849;55.992;37.252;2023-04-16T01:06:04;100599.03;;;2.55;30.33
46111;BME280;31849;55.992;37.252;2023-04-16T01:11:10;100601.91;;;2.43;31.53
46111;BME280;31849;55.992;37.252;2023-04-16T01:16:14;100602.75;;;2.25;31.88
46111;BME280;31849;55.992;37.252;2023-04-16T01:21:19;100591.38;;;2.20;31.52
46111;BME280;31849;55.992;37.252;2023-04-16T01:26:22;100595.03;;;2.25;31.10
46111;BME280;31849;55.992;37.252;2023-04-16T01:31:26;100592.25;;;2.21;31.03
46111;BME280;31849;55.992;37.252;2023-04-16T01:36:31;100602.97;;;2.30;31.64
46111;BME280;31849;55.992;37.252;2023-04-16T01:41:34;100591.19;;;2.34;30.95
46111;BME280;31849;55.992;37.252;2023-04-16T01:46:38;100591.84;;;2.47;30.59
46111;BME280;31849;55.992;37.252;2023-04-16T01:51:43;100598.16;;;2.54;30.82
46111;BME280;31849;55.992;37.252;2023-04-16T01:56:47;100591.63;;;2.61;30.64
46111;BME280;31849;55.992;37.252;2023-04-16T02:01:50;100591.84;;;2.66;30.37
46111;BME280;31849;55.992;37.252;2023-04-16T02:06:55;100585.91;;;2.67;30.48
46111;BME280;31849;55.992;37.252;2023-04-16T02:11:59;100591.19;;;2.70;30.45
46111;BME280;31849;55.992;37.252;2023-04-16T02:17:03;100596.09;;;2.65;31.16
46111;BME280;31849;55.992;37.252;2023-04-16T02:22:08;100593.31;;;2.60;31.32
46111;BME280;31849;55.992;37.252;2023-04-16T02:27:11;100592.00;;;2.51;30.59
46111;BME280;31849;55.992;37.252;2023-04-16T02:32:15;100599.25;;;2.41;30.89
46111;BME280;31849;55.992;37.252;2023-04-16T02:37:20;100590.81;;;2.44;31.08
46111;BME280;31849;55.992;37.252;2023-04-16T02:42:24;100596.53;;;2.38;31.31
46111;BME280;31849;55.992;37.252;2023-04-16T02:47:27;100596.31;;;2.34;31.02
46111;BME280;31849;55.992;37.252;2023-04-16T02:52:33;100597.03;;;2.31;31.50
46111;BME280;31849;55.992;37.252;2023-04-16T02:57:36;100608.78;;;2.26;31.60
46111;BME280;31849;55.992;37.252;2023-04-16T03:02:40;100602.03;;;2.28;31.76
46111;BME280;31849;55.992;37.252;2023-04-16T03:07:45;100607.59;;;2.37;31.51
46111;BME280;31849;55.992;37.252;2023-04-16T03:12:48;100613.22;;;2.46;31.34
46111;BME280;31849;55.992;37.252;2023-04-16T03:17:52;100608.50;;;2.56;31.31
46111;BME280;31849;55.992;37.252;2023-04-16T03:22:57;100605.88;;;2.72;30.89
46111;BME280;31849;55.992;37.252;2023-04-16T03:28:01;100610.81;;;3.05;31.00
46111;BME280;31849;55.992;37.252;2023-04-16T03:33:05;100609.72;;;3.38;30.83
46111;BME280;31849;55.992;37.252;2023-04-16T03:38:10;100611.22;;;3.72;30.17
46111;BME280;31849;55.992;37.252;2023-04-16T03:43:13;100619.53;;;3.85;30.77
46111;BME280;31849;55.992;37.252;2023-04-16T03:48:16;100611.03;;;4.08;29.63
46111;BME280;31849;55.992;37.252;2023-04-16T03:53:21;100609.13;;;4.44;29.22
46111;BME280;31849;55.992;37.252;2023-04-16T03:58:25;100616.75;;;4.85;29.03
46111;BME280;31849;55.992;37.252;2023-04-16T04:03:28;100620.47;;;5.38;28.71
46111;BME280;31849;55.992;37.252;2023-04-16T04:08:34;100616.13;;;10.03;23.80
46111;BME280;31849;55.992;37.252;2023-04-16T04:13:38;100607.50;;;11.85;21.66
46111;BME280;31849;55.992;37.252;2023-04-16T04:18:41;100601.53;;;13.06;20.52
46111;BME280;31849;55.992;37.252;2023-04-16T04:23:46;100595.88;;;14.24;19.39
46111;BME280;31849;55.992;37.252;2023-04-16T04:28:50;100598.50;;;14.72;19.43
46111;BME280;31849;55.992;37.252;2023-04-16T04:33:53;100598.91;;;16.03;18.17
46111;BME280;31849;55.992;37.252;2023-04-16T04:38:58;100610.47;;;13.38;19.62
46111;BME280;31849;55.992;37.252;2023-04-16T04:44:02;100606.31;;;14.20;19.30
46111;BME280;31849;55.992;37.252;2023-04-16T04:49:05;100603.56;;;15.42;18.51
46111;BME280;31849;55.992;37.252;2023-04-16T04:54:11;100598.28;;;15.46;18.63
46111;BME280;31849;55.992;37.252;2023-04-16T04:59:14;100604.91;;;17.88;17.20
46111;BME280;31849;55.992;37.252;2023-04-16T05:04:18;100596.91;;;17.97;15.95
46111;BME280;31849;55.992;37.252;2023-04-16T05:09:23;100603.56;;;19.65;14.72
46111;BME280;31849;55.992;37.252;2023-04-16T05:14:26;100595.34;;;18.41;15.45
46111;BME280;31849;55.992;37.252;2023-04-16T05:19:30;100602.88;;;18.10;15.70
46111;BME280;31849;55.992;37.252;2023-04-16T05:24:35;100592.94;;;18.79;15.13
46111;BME280;31849;55.992;37.252;2023-04-16T05:29:38;100598.53;;;18.06;15.24
46111;BME280;31849;55.992;37.252;2023-04-16T05:34:42;100602.50;;;20.50;13.93
46111;BME280;31849;55.992;37.252;2023-04-16T05:39:47;100587.84;;;22.52;12.35
46111;BME280;31849;55.992;37.252;2023-04-16T05:44:51;100584.25;;;23.52;11.40
46111;BME280;31849;55.992;37.252;2023-04-16T05:49:54;100586.19;;;25.40;10.36
46111;BME280;31849;55.992;37.252;2023-04-16T05:54:59;100571.75;;;26.38;9.54
46111;BME280;31849;55.992;37.252;2023-04-16T06:00:05;100561.31;;;28.62;8.25
46111;BME280;31849;55.992;37.252;2023-04-16T06:05:09;100569.75;;;30.38;7.81
46111;BME280;31849;55.992;37.252;2023-04-16T06:10:14;100577.97;;;31.65;6.77
46111;BME280;31849;55.992;37.252;2023-04-16T06:15:18;100571.09;;;29.63;7.35
46111;BME280;31849;55.992;37.252;2023-04-16T06:20:22;100569.97;;;29.80;7.78
46111;BME280;31849;55.992;37.252;2023-04-16T06:25:26;100562.09;;;30.98;5.91
46111;BME280;31849;55.992;37.252;2023-04-16T06:30:30;100564.47;;;31.15;5.89
46111;BME280;31849;55.992;37.252;2023-04-16T06:35:33;100565.34;;;30.90;6.51
46111;BME280;31849;55.992;37.252;2023-04-16T06:40:38;100563.81;;;29.93;6.35
46111;BME280;31849;55.992;37.252;2023-04-16T06:45:42;100557.63;;;28.48;6.50
46111;BME280;31849;55.992;37.252;2023-04-16T06:50:45;100543.78;;;29.98;5.84
46111;BME280;31849;55.992;37.252;2023-04-16T06:55:50;100548.25;;;28.71;7.00
46111;BME280;31849;55.992;37.252;2023-04-16T07:00:53;100550.59;;;27.53;6.44
46111;BME280;31849;55.992;37.252;2023-04-16T07:05:57;100549.34;;;25.69;7.20
46111;BME280;31849;55.992;37.252;2023-04-16T07:11:02;100551.59;;;25.40;6.83
46111;BME280;31849;55.992;37.252;2023-04-16T07:16:05;100554.41;;;22.98;7.58
46111;BME280;31849;55.992;37.252;2023-04-16T07:21:09;100558.19;;;22.91;7.98
46111;BME280;31849;55.992;37.252;2023-04-16T07:26:15;100553.91;;;20.90;8.46
46111;BME280;31849;55.992;37.252;2023-04-16T07:31:19;100547.16;;;19.71;9.18
46111;BME280;31849;55.992;37.252;2023-04-16T07:36:23;100542.88;;;18.31;9.79
46111;BME280;31849;55.992;37.252;2023-04-16T07:41:30;100537.56;;;17.11;10.65
46111;BME280;31849;55.992;37.252;2023-04-16T07:46:33;100533.97;;;18.36;10.13
46111;BME280;31849;55.992;37.252;2023-04-16T07:51:48;100542.00;;;19.66;9.50
46111;BME280;31849;55.992;37.252;2023-04-16T07:56:53;100529.03;;;19.55;9.12
46111;BME280;31849;55.992;37.252;2023-04-16T08:01:57;100520.59;;;21.44;8.42
46111;BME280;31849;55.992;37.252;2023-04-16T08:07:01;100522.53;;;22.50;8.26
46111;BME280;31849;55.992;37.252;2023-04-16T08:12:06;100519.78;;;22.26;8.47
46111;BME280;31849;55.992;37.252;2023-04-16T08:17:09;100520.50;;;20.53;8.95
46111;BME280;31849;55.992;37.252;2023-04-16T08:22:13;100522.09;;;19.51;9.20
46111;BME280;31849;55.992;37.252;2023-04-16T08:27:19;100510.50;;;18.72;9.63
46111;BME280;31849;55.992;37.252;2023-04-16T08:32:22;100497.25;;;19.21;9.40
46111;BME280;31849;55.992;37.252;2023-04-16T08:37:27;100510.06;;;18.95;9.71
46111;BME280;31849;55.992;37.252;2023-04-16T08:42:38;100501.44;;;17.86;10.07
46111;BME280;31849;55.992;37.252;2023-04-16T08:47:45;100503.75;;;17.48;10.38
46111;BME280;31849;55.992;37.252;2023-04-16T08:52:51;100499.06;;;17.07;10.23
46111;BME280;31849;55.992;37.252;2023-04-16T08:57:57;100489.94;;;16.59;10.83
46111;BME280;31849;55.992;37.252;2023-04-16T09:03:01;100496.50;;;17.02;10.63
46111;BME280;31849;55.992;37.252;2023-04-16T09:08:07;100485.03;;;17.08;10.62
46111;BME280;31849;55.992;37.252;2023-04-16T09:13:12;100482.06;;;16.59;10.89
46111;BME280;31849;55.992;37.252;2023-04-16T09:18:18;100485.91;;;16.26;10.93
46111;BME280;31849;55.992;37.252;2023-04-16T09:23:22;100483.66;;;15.81;11.42
46111;BME280;31849;55.992;37.252;2023-04-16T09:28:42;100476.88;;;15.47;11.60
46111;BME280;31849;55.992;37.252;2023-04-16T09:34:00;100480.72;;;14.58;12.00
46111;BME280;31849;55.992;37.252;2023-04-16T09:39:04;100471.13;;;14.70;12.00
46111;BME280;31849;55.992;37.252;2023-04-16T09:44:10;100474.69;;;14.24;12.26
46111;BME280;31849;55.992;37.252;2023-04-16T09:49:15;100458.81;;;14.90;12.20
46111;BME280;31849;55.992;37.252;2023-04-16T09:54:19;100478.81;;;15.04;12.62
46111;BME280;31849;55.992;37.252;2023-04-16T09:59:26;100471.00;;;14.99;12.28
46111;BME280;31849;55.992;37.252;2023-04-16T10:04:45;100464.91;;;14.97;12.37
46111;BME280;31849;55.992;37.252;2023-04-16T10:09:49;100457.06;;;14.91;12.38
46111;BME280;31849;55.992;37.252;2023-04-16T10:14:54;100453.63;;;14.80;13.06
46111;BME280;31849;55.992;37.252;2023-04-16T10:19:59;100451.75;;;15.08;12.67
46111;BME280;31849;55.992;37.252;2023-04-16T10:25:06;100444.25;;;15.90;12.06
46111;BME280;31849;55.992;37.252;2023-04-16T10:30:12;100436.13;;;16.15;11.90
46111;BME280;31849;55.992;37.252;2023-04-16T10:35:18;100438.22;;;15.79;11.93
46111;BME280;31849;55.992;37.252;2023-04-16T10:40:23;100443.09;;;14.90;12.22
46111;BME280;31849;55.992;37.252;2023-04-16T10:45:36;100444.16;;;14.00;12.71
46111;BME280;31849;55.992;37.252;2023-04-16T10:50:40;100435.47;;;13.61;13.05
46111;BME280;31849;55.992;37.252;2023-04-16T10:55:58;100431.13;;;13.63;13.52
46111;BME280;31849;55.992;37.252;2023-04-16T11:01:14;100413.66;;;13.39;13.63
46111;BME280;31849;55.992;37.252;2023-04-16T11:06:23;100408.44;;;13.34;13.98
46111;BME280;31849;55.992;37.252;2023-04-16T11:11:36;100404.97;;;13.77;13.61
46111;BME280;31849;55.992;37.252;2023-04-16T11:16:41;100404.09;;;13.70;13.93
46111;BME280;31849;55.992;37.252;2023-04-16T11:21:45;100410.16;;;14.00;13.54
46111;BME280;31849;55.992;37.252;2023-04-16T11:26:50;100399.75;;;13.38;14.06
46111;BME280;31849;55.992;37.252;2023-04-16T11:31:55;100386.69;;;13.53;14.26
46111;BME280;31849;55.992;37.252;2023-04-16T11:36:59;100386.66;;;13.27;14.12
46111;BME280;31849;55.992;37.252;2023-04-16T11:42:03;100377.97;;;13.64;14.58
46111;BME280;31849;55.992;37.252;2023-04-16T11:47:08;100378.84;;;13.44;14.32
46111;BME280;31849;55.992;37.252;2023-04-16T11:52:24;100377.97;;;13.38;14.53
46111;BME280;31849;55.992;37.252;2023-04-16T11:57:29;100381.47;;;13.63;14.13
46111;BME280;31849;55.992;37.252;2023-04-16T12:02:35;100364.03;;;13.66;14.25
46111;BME280;31849;55.992;37.252;2023-04-16T12:07:44;100357.94;;;13.78;14.55
46111;BME280;31849;55.992;37.252;2023-04-16T12:12:48;100348.31;;;13.96;14.32
46111;BME280;31849;55.992;37.252;2023-04-16T12:18:05;100352.72;;;13.74;14.17
46111;BME280;31849;55.992;37.252;2023-04-16T12:23:10;100350.09;;;13.46;14.29
46111;BME280;31849;55.992;37.252;2023-04-16T12:28:26;100337.91;;;13.34;14.63
46111;BME280;31849;55.992;37.252;2023-04-16T12:33:31;100337.91;;;13.46;14.96
46111;BME280;31849;55.992;37.252;2023-04-16T12:38:34;100330.97;;;13.47;14.40
46111;BME280;31849;55.992;37.252;2023-04-16T12:43:38;100327.44;;;13.48;15.00
46111;BME280;31849;55.992;37.252;2023-04-16T12:48:43;100322.25;;;13.40;14.75
46111;BME280;31849;55.992;37.252;2023-04-16T12:53:47;100296.97;;;13.59;14.27
46111;BME280;31849;55.992;37.252;2023-04-16T12:58:51;100308.28;;;13.78;14.96
46111;BME280;31849;55.992;37.252;2023-04-16T13:03:56;100290.00;;;13.49;14.74
46111;BME280;31849;55.992;37.252;2023-04-16T13:08:59;100290.88;;;13.65;14.90
46111;BME280;31849;55.992;37.252;2023-04-16T13:14:03;100269.06;;;13.75;14.71
46111;BME280;31849;55.992;37.252;2023-04-16T13:19:08;100285.63;;;13.68;14.77
46111;BME280;31849;55.992;37.252;2023-04-16T13:24:12;100293.50;;;13.57;14.33
46111;BME280;31849;55.992;37.252;2023-04-16T13:29:16;100279.56;;;13.24;14.87
46111;BME280;31849;55.992;37.252;2023-04-16T13:34:21;100274.34;;;13.24;14.88
46111;BME280;31849;55.992;37.252;2023-04-16T13:39:25;100275.19;;;13.08;14.83
46111;BME280;31849;55.992;37.252;2023-04-16T13:44:28;100278.66;;;12.97;14.70
46111;BME280;31849;55.992;37.252;2023-04-16T13:49:34;100269.97;;;13.11;15.33
46111;BME280;31849;55.992;37.252;2023-04-16T13:54:37;100257.81;;;13.07;15.40
46111;BME280;31849;55.992;37.252;2023-04-16T13:59:41;100250.84;;;12.96;15.15
46111;BME280;31849;55.992;37.252;2023-04-16T14:04:46;100260.38;;;12.87;15.29
46111;BME280;31849;55.992;37.252;2023-04-16T14:09:49;100249.94;;;12.68;15.84
46111;BME280;31849;55.992;37.252;2023-04-16T14:14:53;100258.63;;;12.64;15.39
46111;BME280;31849;55.992;37.252;2023-04-16T14:19:58;100255.13;;;12.59;15.99
46111;BME280;31849;55.992;37.252;2023-04-16T14:25:02;100242.13;;;12.68;15.54
46111;BME280;31849;55.992;37.252;2023-04-16T14:30:07;100239.50;;;12.94;16.01
46111;BME280;31849;55.992;37.252;2023-04-16T14:35:12;100253.44;;;13.30;15.34
46111;BME280;31849;55.992;37.252;2023-04-16T14:40:15;100240.41;;;13.36;15.41
46111;BME280;31849;55.992;37.252;2023-04-16T14:45:19;100235.97;;;13.74;15.63
46111;BME280;31849;55.992;37.252;2023-04-16T14:50:24;100241.16;;;13.89;15.28
46111;BME280;31849;55.992;37.252;2023-04-16T14:55:28;100215.13;;;13.46;15.08
46111;BME280;31849;55.992;37.252;2023-04-16T15:00:33;100236.81;;;13.75;14.85
46111;BME280;31849;55.992;37.252;2023-04-16T15:05:38;100237.75;;;13.66;15.55
46111;BME280;31849;55.992;37.252;2023-04-16T15:10:42;100234.28;;;13.36;15.47
46111;BME280;31849;55.992;37.252;2023-04-16T15:15:46;100230.81;;;13.25;15.36
46111;BME280;31849;55.992;37.252;2023-04-16T15:20:52;100239.53;;;13.02;15.68
46111;BME280;31849;55.992;37.252;2023-04-16T15:25:57;100229.09;;;12.99;16.18
46111;BME280;31849;55.992;37.252;2023-04-16T15:31:00;100209.09;;;12.87;16.07
46111;BME280;31849;55.992;37.252;2023-04-16T15:36:06;100232.53;;;12.84;16.13
46111;BME280;31849;55.992;37.252;2023-04-16T15:41:09;100229.94;;;12.73;16.49
46111;BME280;31849;55.992;37.252;2023-04-16T15:46:13;100227.31;;;12.52;16.33
46111;BME280;31849;55.992;37.252;2023-04-16T15:51:19;100224.66;;;12.42;16.38
46111;BME280;31849;55.992;37.252;2023-04-16T15:56:22;100222.00;;;12.25;16.57
46111;BME280;31849;55.992;37.252;2023-04-16T16:01:26;100224.59;;;12.10;16.33
46111;BME280;31849;55.992;37.252;2023-04-16T16:06:31;100217.50;;;11.92;17.05
46111;BME280;31849;55.992;37.252;2023-04-16T16:11:35;100217.47;;;11.83;16.80
46111;BME280;31849;55.992;37.252;2023-04-16T16:16:39;100231.31;;;11.69;17.28
46111;BME280;31849;55.992;37.252;2023-04-16T16:21:44;100225.22;;;11.67;17.32
46111;BME280;31849;55.992;37.252;2023-04-16T16:26:48;100228.66;;;11.63;17.16
46111;BME280;31849;55.992;37.252;2023-04-16T16:31:52;100226.94;;;11.65;17.25
46111;BME280;31849;55.992;37.252;2023-04-16T16:36:57;100228.63;;;11.57;17.42
46111;BME280;31849;55.992;37.252;2023-04-16T16:42:00;100226.00;;;11.48;17.44
46111;BME280;31849;55.992;37.252;2023-04-16T16:47:04;100229.41;;;11.42;17.30
46111;BME280;31849;55.992;37.252;2023-04-16T16:52:09;100224.97;;;11.24;17.63
46111;BME280;31849;55.992;37.252;2023-04-16T16:57:13;100232.78;;;11.24;17.74
46111;BME280;31849;55.992;37.252;2023-04-16T17:02:16;100227.53;;;11.21;17.80
46111;BME280;31849;55.992;37.252;2023-04-16T17:07:22;100224.06;;;11.23;17.99
46111;BME280;31849;55.992;37.252;2023-04-16T17:12:25;100230.16;;;11.24;17.90
46111;BME280;31849;55.992;37.252;2023-04-16T17:17:29;100230.09;;;11.16;17.92
46111;BME280;31849;55.992;37.252;2023-04-16T17:22:35;100238.66;;;11.01;18.15
46111;BME280;31849;55.992;37.252;2023-04-16T17:27:39;100224.75;;;10.96;18.23
46111;BME280;31849;55.992;37.252;2023-04-16T17:32:43;100235.09;;;10.88;18.47
46111;BME280;31849;55.992;37.252;2023-04-16T17:37:48;100230.66;;;10.77;18.43
46111;BME280;31849;55.992;37.252;2023-04-16T17:42:51;100235.72;;;10.66;18.82
46111;BME280;31849;55.992;37.252;2023-04-16T17:47:55;100231.34;;;10.57;18.92
46111;BME280;31849;55.992;37.252;2023-04-16T17:53:00;100227.84;;;10.58;19.59
46111;BME280;31849;55.992;37.252;2023-04-16T17:58:04;100234.75;;;10.51;20.76
46111;BME280;31849;55.992;37.252;2023-04-16T18:03:08;100227.66;;;10.36;20.89
46111;BME280;31849;55.992;37.252;2023-04-16T18:08:14;100223.19;;;10.26;22.26
46111;BME280;31849;55.992;37.252;2023-04-16T18:13:17;100232.75;;;10.29;22.34
46111;BME280;31849;55.992;37.252;2023-04-16T18:18:21;100198.75;;;10.12;22.68
46111;BME280;31849;55.992;37.252;2023-04-16T18:23:26;100227.44;;;10.21;23.73
46111;BME280;31849;55.992;37.252;2023-04-16T18:28:29;100221.34;;;10.17;22.86
46111;BME280;31849;55.992;37.252;2023-04-16T18:33:33;100218.53;;;10.02;23.41
46111;BME280;31849;55.992;37.252;2023-04-16T18:38:58;100213.31;;;9.97;24.40
46111;BME280;31849;55.992;37.252;2023-04-16T18:44:04;100214.94;;;9.89;24.63
46111;BME280;31849;55.992;37.252;2023-04-16T18:49:07;100211.38;;;9.82;24.30
46111;BME280;31849;55.992;37.252;2023-04-16T18:54:13;100212.13;;;9.74;25.03
46111;BME280;31849;55.992;37.252;2023-04-16T18:59:17;100212.00;;;9.63;25.44
46111;BME280;31849;55.992;37.252;2023-04-16T19:04:21;100192.69;;;9.42;25.35
46111;BME280;31849;55.992;37.252;2023-04-16T19:09:26;100208.34;;;9.48;25.59
46111;BME280;31849;55.992;37.252;2023-04-16T19:14:29;100205.53;;;9.33;24.70
46111;BME280;31849;55.992;37.252;2023-04-16T19:19:33;100202.69;;;9.14;25.95
46111;BME280;31849;55.992;37.252;2023-04-16T19:24:38;100204.28;;;9.06;26.42
46111;BME280;31849;55.992;37.252;2023-04-16T19:29:41;100201.56;;;8.98;24.80
46111;BME280;31849;55.992;37.252;2023-04-16T19:34:46;100209.03;;;8.80;26.14
46111;BME280;31849;55.992;37.252;2023-04-16T19:39:51;100207.16;;;8.73;27.02
46111;BME280;31849;55.992;37.252;2023-04-16T19:44:55;100207.13;;;8.70;27.59
46111;BME280;31849;55.992;37.252;2023-04-16T19:49:59;100214.91;;;8.70;27.16
46111;BME280;31849;55.992;37.252;2023-04-16T19:55:07;100208.13;;;8.76;27.38
46111;BME280;31849;55.992;37.252;2023-04-16T20:00:11;100209.84;;;8.76;27.02
46111;BME280;31849;55.992;37.252;2023-04-16T20:05:15;100220.13;;;8.73;28.40
46111;BME280;31849;55.992;37.252;2023-04-16T20:10:20;100216.66;;;8.71;28.71
46111;BME280;31849;55.992;37.252;2023-04-16T20:15:24;100214.81;;;8.65;28.87
46111;BME280;31849;55.992;37.252;2023-04-16T20:20:28;100210.44;;;8.61;28.47
46111;BME280;31849;55.992;37.252;2023-04-16T20:25:33;100211.25;;;8.57;29.75
46111;BME280;31849;55.992;37.252;2023-04-16T20:30:36;100206.94;;;8.59;29.22
46111;BME280;31849;55.992;37.252;2023-04-16T20:35:41;100205.22;;;8.59;29.06
46111;BME280;31849;55.992;37.252;2023-04-16T20:40:45;100191.28;;;8.53;29.99
46111;BME280;31849;55.992;37.252;2023-04-16T20:45:49;100197.38;;;8.56;30.15
46111;BME280;31849;55.992;37.252;2023-04-16T20:50:57;100206.19;;;8.65;30.53
46111;BME280;31849;55.992;37.252;2023-04-16T20:56:02;100205.28;;;8.62;30.54
46111;BME280;31849;55.992;37.252;2023-04-16T21:01:05;100194.97;;;8.66;30.50
46111;BME280;31849;55.992;37.252;2023-04-16T21:06:09;100198.50;;;8.71;30.26
46111;BME280;31849;55.992;37.252;2023-04-16T21:11:17;100202.97;;;8.78;30.16
46111;BME280;31849;55.992;37.252;2023-04-16T21:16:20;100190.69;;;8.68;29.59
46111;BME280;31849;55.992;37.252;2023-04-16T21:21:24;100196.72;;;8.68;29.81
46111;BME280;31849;55.992;37.252;2023-04-16T21:26:29;100196.91;;;8.77;29.93
46111;BME280;31849;55.992;37.252;2023-04-16T21:31:33;100204.63;;;8.74;29.86
46111;BME280;31849;55.992;37.252;2023-04-16T21:36:36;100204.47;;;8.67;30.70
46111;BME280;31849;55.992;37.252;2023-04-16T21:41:41;100206.28;;;8.71;30.69
46111;BME280;31849;55.992;37.252;2023-04-16T21:46:44;100208.06;;;8.73;29.72
46111;BME280;31849;55.992;37.252;2023-04-16T21:51:48;100214.03;;;8.69;30.79
46111;BME280;31849;55.992;37.252;2023-04-16T21:57:01;100212.28;;;8.68;31.40
46111;BME280;31849;55.992;37.252;2023-04-16T22:02:05;100209.59;;;8.62;31.38
46111;BME280;31849;55.992;37.252;2023-04-16T22:07:09;100208.69;;;8.60;31.79
46111;BME280;31849;55.992;37.252;2023-04-16T22:12:14;100206.91;;;8.57;32.16
46111;BME280;31849;55.992;37.252;2023-04-16T22:17:17;100213.81;;;8.55;32.76
46111;BME280;31849;55.992;37.252;2023-04-16T22:22:21;100209.19;;;8.40;32.64
46111;BME280;31849;55.992;37.252;2023-04-16T22:27:26;100211.59;;;8.31;33.59
46111;BME280;31849;55.992;37.252;2023-04-16T22:32:30;100209.50;;;8.12;33.25
46111;BME280;31849;55.992;37.252;2023-04-16T22:37:34;100210.38;;;8.12;34.07
46111;BME280;31849;55.992;37.252;2023-04-16T22:42:39;100198.78;;;7.93;34.60
46111;BME280;31849;55.992;37.252;2023-04-16T22:47:42;100206.34;;;7.84;33.81
46111;BME280;31849;55.992;37.252;2023-04-16T22:52:46;100214.78;;;7.73;33.73
46111;BME280;31849;55.992;37.252;2023-04-16T22:57:51;100205.16;;;7.68;35.05
46111;BME280;31849;55.992;37.252;2023-04-16T23:02:55;100207.97;;;7.79;33.93
46111;BME280;31849;55.992;37.252;2023-04-16T23:07:58;100200.31;;;7.85;34.69
46111;BME280;31849;55.992;37.252;2023-04-16T23:13:03;100204.72;;;7.87;35.91
46111;BME280;31849;55.992;37.252;2023-04-16T23:18:07;100200.31;;;7.85;35.72
46111;BME280;31849;55.992;37.252;2023-04-16T23:23:10;100195.84;;;7.78;35.58
46111;BME280;31849;55.992;37.252;2023-04-16T23:28:15;100185.41;;;7.73;36.42
46111;BME280;31849;55.992;37.252;2023-04-16T23:33:19;100200.06;;;7.71;36.73
46111;BME280;31849;55.992;37.252;2023-04-16T23:38:23;100195.59;;;7.64;36.92
46111;BME280;31849;55.992;37.252;2023-04-16T23:43:28;100203.38;;;7.65;37.38
46111;BME280;31849;55.992;37.252;2023-04-16T23:48:31;100212.88;;;7.65;35.87
46111;BME280;31849;55.992;37.252;2023-04-16T23:53:35;100195.25;;;7.48;37.01
46111;BME280;31849;55.992;37.252;2023-04-16T23:58:39;100204.03;;;7.55;36.97
